sensor_id;sensor_type;location;lat;lon;timestamp;temperature;humidity
36556;DHT22;40859;50.560;7.268;2023-01-26T00:01:25;20.80;70.40
36556;DHT22;40859;50.560;7.268;2023-01-26T00:03:54;20.80;70.40
36556;DHT22;40859;50.560;7.268;2023-01-26T00:06:20;20.80;70.20
36556;DHT22;40859;50.560;7.268;2023-01-26T00:08:48;20.80;70.30
36556;DHT22;40859;50.560;7.268;2023-01-26T00:11:15;20.80;70.40
36556;DHT22;40859;50.560;7.268;2023-01-26T00:13:41;20.80;70.20
36556;DHT22;40859;50.560;7.268;2023-01-26T00:16:10;20.70;70.10
36556;DHT22;40859;50.560;7.268;2023-01-26T00:18:36;20.70;70.20
36556;DHT22;40859;50.560;7.268;2023-01-26T00:21:02;20.70;70.10
36556;DHT22;40859;50.560;7.268;2023-01-26T00:23:29;20.70;70.10
36556;DHT22;40859;50.560;7.268;2023-01-26T00:25:55;20.70;70.10
36556;DHT22;40859;50.560;7.268;2023-01-26T00:28:20;20.70;70.00
36556;DHT22;40859;50.560;7.268;2023-01-26T00:30:46;20.70;70.10
36556;DHT22;40859;50.560;7.268;2023-01-26T00:33:12;20.70;70.00
36556;DHT22;40859;50.560;7.268;2023-01-26T00:35:38;20.70;70.00
36556;DHT22;40859;50.560;7.268;2023-01-26T00:38:09;20.70;69.90
36556;DHT22;40859;50.560;7.268;2023-01-26T00:40:35;20.70;70.00
36556;DHT22;40859;50.560;7.268;2023-01-26T00:43:01;20.70;69.90
36556;DHT22;40859;50.560;7.268;2023-01-26T00:45:26;20.70;69.90
36556;DHT22;40859;50.560;7.268;2023-01-26T00:47:52;20.70;70.20
36556;DHT22;40859;50.560;7.268;2023-01-26T00:50:18;20.70;70.00
36556;DHT22;40859;50.560;7.268;2023-01-26T00:52:43;20.70;70.00
36556;DHT22;40859;50.560;7.268;2023-01-26T00:55:09;20.80;70.00
36556;DHT22;40859;50.560;7.268;2023-01-26T00:57:35;20.70;69.80
36556;DHT22;40859;50.560;7.268;2023-01-26T01:00:00;20.70;69.80
36556;DHT22;40859;50.560;7.268;2023-01-26T01:02:27;20.70;69.80
36556;DHT22;40859;50.560;7.268;2023-01-26T01:04:53;20.70;69.70
36556;DHT22;40859;50.560;7.268;2023-01-26T01:07:21;20.70;69.80
36556;DHT22;40859;50.560;7.268;2023-01-26T01:09:47;20.70;69.80
36556;DHT22;40859;50.560;7.268;2023-01-26T01:12:12;20.70;69.80
36556;DHT22;40859;50.560;7.268;2023-01-26T01:14:38;20.70;69.70
36556;DHT22;40859;50.560;7.268;2023-01-26T01:17:04;20.70;69.50
36556;DHT22;40859;50.560;7.268;2023-01-26T01:19:36;20.70;69.70
36556;DHT22;40859;50.560;7.268;2023-01-26T01:22:02;20.70;69.70
36556;DHT22;40859;50.560;7.268;2023-01-26T01:24:31;20.70;69.60
36556;DHT22;40859;50.560;7.268;2023-01-26T01:26:58;20.70;69.70
36556;DHT22;40859;50.560;7.268;2023-01-26T01:29:24;20.70;69.70
36556;DHT22;40859;50.560;7.268;2023-01-26T01:31:50;20.70;69.50
36556;DHT22;40859;50.560;7.268;2023-01-26T01:34:16;20.70;69.60
36556;DHT22;40859;50.560;7.268;2023-01-26T01:36:41;20.70;69.50
36556;DHT22;40859;50.560;7.268;2023-01-26T01:39:07;20.70;69.40
36556;DHT22;40859;50.560;7.268;2023-01-26T01:41:33;20.70;69.50
36556;DHT22;40859;50.560;7.268;2023-01-26T01:44:17;20.70;69.50
36556;DHT22;40859;50.560;7.268;2023-01-26T01:46:56;20.70;69.80
36556;DHT22;40859;50.560;7.268;2023-01-26T01:49:27;20.70;69.40
36556;DHT22;40859;50.560;7.268;2023-01-26T01:52:01;20.70;69.40
36556;DHT22;40859;50.560;7.268;2023-01-26T01:54:32;20.60;69.40
36556;DHT22;40859;50.560;7.268;2023-01-26T01:56:59;20.60;69.40
36556;DHT22;40859;50.560;7.268;2023-01-26T01:59:26;20.70;69.40
36556;DHT22;40859;50.560;7.268;2023-01-26T02:01:53;20.60;69.30
36556;DHT22;40859;50.560;7.268;2023-01-26T02:04:23;20.60;69.20
36556;DHT22;40859;50.560;7.268;2023-01-26T02:06:50;20.60;69.20
36556;DHT22;40859;50.560;7.268;2023-01-26T02:09:17;20.60;69.20
36556;DHT22;40859;50.560;7.268;2023-01-26T02:12:03;20.60;69.20
36556;DHT22;40859;50.560;7.268;2023-01-26T02:14:31;20.60;69.30
36556;DHT22;40859;50.560;7.268;2023-01-26T02:16:57;20.60;69.20
36556;DHT22;40859;50.560;7.268;2023-01-26T02:19:59;20.60;69.20
36556;DHT22;40859;50.560;7.268;2023-01-26T02:26:24;20.60;69.20
36556;DHT22;40859;50.560;7.268;2023-01-26T02:28:50;20.60;69.30
36556;DHT22;40859;50.560;7.268;2023-01-26T02:31:16;20.60;69.10
36556;DHT22;40859;50.560;7.268;2023-01-26T02:33:43;20.60;69.20
36556;DHT22;40859;50.560;7.268;2023-01-26T02:36:21;20.60;69.20
36556;DHT22;40859;50.560;7.268;2023-01-26T02:38:50;20.60;69.20
36556;DHT22;40859;50.560;7.268;2023-01-26T02:41:16;20.60;69.20
36556;DHT22;40859;50.560;7.268;2023-01-26T02:44:01;20.60;69.20
36556;DHT22;40859;50.560;7.268;2023-01-26T02:46:28;20.60;69.20
36556;DHT22;40859;50.560;7.268;2023-01-26T02:48:54;20.60;69.20
36556;DHT22;40859;50.560;7.268;2023-01-26T02:51:38;20.60;69.20
36556;DHT22;40859;50.560;7.268;2023-01-26T02:54:03;20.60;69.20
36556;DHT22;40859;50.560;7.268;2023-01-26T02:56:29;20.60;69.20
36556;DHT22;40859;50.560;7.268;2023-01-26T02:58:55;20.60;69.20
36556;DHT22;40859;50.560;7.268;2023-01-26T03:01:21;20.60;69.30
36556;DHT22;40859;50.560;7.268;2023-01-26T03:03:46;20.60;69.20
36556;DHT22;40859;50.560;7.268;2023-01-26T03:06:12;20.60;69.20
36556;DHT22;40859;50.560;7.268;2023-01-26T03:08:38;20.60;69.10
36556;DHT22;40859;50.560;7.268;2023-01-26T03:11:04;20.60;69.10
36556;DHT22;40859;50.560;7.268;2023-01-26T03:13:30;20.60;69.10
36556;DHT22;40859;50.560;7.268;2023-01-26T03:15:56;20.60;69.10
36556;DHT22;40859;50.560;7.268;2023-01-26T03:18:27;20.60;69.20
36556;DHT22;40859;50.560;7.268;2023-01-26T03:21:12;20.50;69.00
36556;DHT22;40859;50.560;7.268;2023-01-26T03:23:56;20.60;69.10
36556;DHT22;40859;50.560;7.268;2023-01-26T03:26:40;20.60;68.90
36556;DHT22;40859;50.560;7.268;2023-01-26T03:29:24;20.50;69.00
36556;DHT22;40859;50.560;7.268;2023-01-26T03:31:53;20.50;69.00
36556;DHT22;40859;50.560;7.268;2023-01-26T03:34:19;20.50;69.00
36556;DHT22;40859;50.560;7.268;2023-01-26T03:36:45;20.50;69.10
36556;DHT22;40859;50.560;7.268;2023-01-26T03:39:11;20.50;69.00
36556;DHT22;40859;50.560;7.268;2023-01-26T03:43:31;20.50;69.00
36556;DHT22;40859;50.560;7.268;2023-01-26T03:46:16;20.50;69.00
36556;DHT22;40859;50.560;7.268;2023-01-26T03:49:00;20.50;68.90
36556;DHT22;40859;50.560;7.268;2023-01-26T03:51:44;20.50;68.90
36556;DHT22;40859;50.560;7.268;2023-01-26T03:54:29;20.50;68.90
36556;DHT22;40859;50.560;7.268;2023-01-26T03:57:13;20.50;68.90
36556;DHT22;40859;50.560;7.268;2023-01-26T03:59:38;20.50;68.90
36556;DHT22;40859;50.560;7.268;2023-01-26T04:02:05;20.50;68.90
36556;DHT22;40859;50.560;7.268;2023-01-26T04:04:50;20.50;68.90
36556;DHT22;40859;50.560;7.268;2023-01-26T04:07:35;20.50;68.80
36556;DHT22;40859;50.560;7.268;2023-01-26T04:10:19;20.50;68.80
36556;DHT22;40859;50.560;7.268;2023-01-26T04:12:44;20.50;68.90
36556;DHT22;40859;50.560;7.268;2023-01-26T04:15:29;20.50;68.90
36556;DHT22;40859;50.560;7.268;2023-01-26T04:18:13;20.50;68.80
36556;DHT22;40859;50.560;7.268;2023-01-26T04:20:57;20.50;68.80
36556;DHT22;40859;50.560;7.268;2023-01-26T04:23:41;20.50;68.80
36556;DHT22;40859;50.560;7.268;2023-01-26T04:26:07;20.40;68.80
36556;DHT22;40859;50.560;7.268;2023-01-26T04:28:33;20.50;68.80
36556;DHT22;40859;50.560;7.268;2023-01-26T04:31:03;20.50;68.80
36556;DHT22;40859;50.560;7.268;2023-01-26T04:33:29;20.40;68.80
36556;DHT22;40859;50.560;7.268;2023-01-26T04:35:55;20.50;68.70
36556;DHT22;40859;50.560;7.268;2023-01-26T04:38:21;20.40;68.70
36556;DHT22;40859;50.560;7.268;2023-01-26T04:40:53;20.50;68.70
36556;DHT22;40859;50.560;7.268;2023-01-26T04:43:19;20.40;68.80
36556;DHT22;40859;50.560;7.268;2023-01-26T04:45:55;20.40;68.70
36556;DHT22;40859;50.560;7.268;2023-01-26T04:48:21;20.40;68.70
36556;DHT22;40859;50.560;7.268;2023-01-26T04:50:52;20.40;68.70
36556;DHT22;40859;50.560;7.268;2023-01-26T04:53:17;20.50;68.60
36556;DHT22;40859;50.560;7.268;2023-01-26T04:55:43;20.40;68.60
36556;DHT22;40859;50.560;7.268;2023-01-26T04:58:09;20.40;68.60
36556;DHT22;40859;50.560;7.268;2023-01-26T05:00:34;20.40;68.60
36556;DHT22;40859;50.560;7.268;2023-01-26T05:03:00;20.50;68.70
36556;DHT22;40859;50.560;7.268;2023-01-26T05:05:25;20.40;68.50
36556;DHT22;40859;50.560;7.268;2023-01-26T05:07:51;20.40;68.60
36556;DHT22;40859;50.560;7.268;2023-01-26T05:10:17;20.40;68.60
36556;DHT22;40859;50.560;7.268;2023-01-26T05:12:43;20.40;68.60
36556;DHT22;40859;50.560;7.268;2023-01-26T05:15:09;20.40;68.50
36556;DHT22;40859;50.560;7.268;2023-01-26T05:17:35;20.40;68.50
36556;DHT22;40859;50.560;7.268;2023-01-26T05:20:01;20.40;68.50
36556;DHT22;40859;50.560;7.268;2023-01-26T05:22:27;20.40;68.40
36556;DHT22;40859;50.560;7.268;2023-01-26T05:24:52;20.40;68.40
36556;DHT22;40859;50.560;7.268;2023-01-26T05:27:18;20.40;68.40
36556;DHT22;40859;50.560;7.268;2023-01-26T05:29:47;20.40;68.60
36556;DHT22;40859;50.560;7.268;2023-01-26T05:32:12;20.40;69.50
36556;DHT22;40859;50.560;7.268;2023-01-26T05:34:38;20.40;68.60
36556;DHT22;40859;50.560;7.268;2023-01-26T05:37:04;20.40;68.60
36556;DHT22;40859;50.560;7.268;2023-01-26T05:39:29;20.40;68.70
36556;DHT22;40859;50.560;7.268;2023-01-26T05:41:55;20.40;68.70
36556;DHT22;40859;50.560;7.268;2023-01-26T05:44:24;20.40;68.80
36556;DHT22;40859;50.560;7.268;2023-01-26T05:46:50;20.40;68.80
36556;DHT22;40859;50.560;7.268;2023-01-26T05:49:16;20.40;68.70
36556;DHT22;40859;50.560;7.268;2023-01-26T05:51:42;20.40;68.70
36556;DHT22;40859;50.560;7.268;2023-01-26T05:54:07;20.40;68.70
36556;DHT22;40859;50.560;7.268;2023-01-26T05:56:33;20.40;68.60
36556;DHT22;40859;50.560;7.268;2023-01-26T05:59:01;20.40;68.60
36556;DHT22;40859;50.560;7.268;2023-01-26T06:01:27;20.40;68.60
36556;DHT22;40859;50.560;7.268;2023-01-26T06:03:53;20.40;68.60
36556;DHT22;40859;50.560;7.268;2023-01-26T06:06:19;20.40;68.50
36556;DHT22;40859;50.560;7.268;2023-01-26T06:08:44;20.40;69.40
36556;DHT22;40859;50.560;7.268;2023-01-26T06:11:10;20.40;68.50
36556;DHT22;40859;50.560;7.268;2023-01-26T06:13:36;20.40;68.40
36556;DHT22;40859;50.560;7.268;2023-01-26T06:16:01;20.30;64.90
36556;DHT22;40859;50.560;7.268;2023-01-26T06:18:27;20.20;65.40
36556;DHT22;40859;50.560;7.268;2023-01-26T06:20:52;20.20;65.70
36556;DHT22;40859;50.560;7.268;2023-01-26T06:23:18;20.10;66.10
36556;DHT22;40859;50.560;7.268;2023-01-26T06:25:44;20.10;66.40
36556;DHT22;40859;50.560;7.268;2023-01-26T06:28:09;20.10;67.20
36556;DHT22;40859;50.560;7.268;2023-01-26T06:30:35;20.00;67.40
36556;DHT22;40859;50.560;7.268;2023-01-26T06:33:01;20.00;67.60
36556;DHT22;40859;50.560;7.268;2023-01-26T06:35:26;20.00;67.80
36556;DHT22;40859;50.560;7.268;2023-01-26T06:37:55;20.00;67.90
36556;DHT22;40859;50.560;7.268;2023-01-26T06:40:20;20.00;68.20
36556;DHT22;40859;50.560;7.268;2023-01-26T06:42:49;20.00;67.90
36556;DHT22;40859;50.560;7.268;2023-01-26T06:45:15;20.00;68.00
36556;DHT22;40859;50.560;7.268;2023-01-26T06:47:44;19.90;68.40
36556;DHT22;40859;50.560;7.268;2023-01-26T06:50:10;19.90;68.60
36556;DHT22;40859;50.560;7.268;2023-01-26T06:52:36;19.90;68.60
36556;DHT22;40859;50.560;7.268;2023-01-26T06:55:04;19.90;68.70
36556;DHT22;40859;50.560;7.268;2023-01-26T06:57:29;19.90;68.70
36556;DHT22;40859;50.560;7.268;2023-01-26T06:59:55;19.90;68.70
36556;DHT22;40859;50.560;7.268;2023-01-26T07:02:22;19.90;68.40
36556;DHT22;40859;50.560;7.268;2023-01-26T07:04:48;19.90;68.90
36556;DHT22;40859;50.560;7.268;2023-01-26T07:07:14;20.00;69.10
36556;DHT22;40859;50.560;7.268;2023-01-26T07:09:39;20.00;69.10
36556;DHT22;40859;50.560;7.268;2023-01-26T07:12:05;20.00;70.00
36556;DHT22;40859;50.560;7.268;2023-01-26T07:14:31;20.00;69.10
36556;DHT22;40859;50.560;7.268;2023-01-26T07:16:56;20.10;69.20
36556;DHT22;40859;50.560;7.268;2023-01-26T07:19:22;20.10;69.10
36556;DHT22;40859;50.560;7.268;2023-01-26T07:21:48;20.10;69.10
36556;DHT22;40859;50.560;7.268;2023-01-26T07:24:13;20.10;69.20
36556;DHT22;40859;50.560;7.268;2023-01-26T07:26:39;20.10;69.20
36556;DHT22;40859;50.560;7.268;2023-01-26T07:29:05;20.10;69.20
36556;DHT22;40859;50.560;7.268;2023-01-26T07:31:30;20.10;69.30
36556;DHT22;40859;50.560;7.268;2023-01-26T07:33:56;20.10;69.40
36556;DHT22;40859;50.560;7.268;2023-01-26T07:36:21;20.10;69.40
36556;DHT22;40859;50.560;7.268;2023-01-26T07:38:47;20.10;69.50
36556;DHT22;40859;50.560;7.268;2023-01-26T07:41:13;20.10;69.50
36556;DHT22;40859;50.560;7.268;2023-01-26T07:43:38;20.10;69.50
36556;DHT22;40859;50.560;7.268;2023-01-26T07:46:06;20.10;69.50
36556;DHT22;40859;50.560;7.268;2023-01-26T07:48:31;20.10;69.60
36556;DHT22;40859;50.560;7.268;2023-01-26T07:50:58;20.20;69.80
36556;DHT22;40859;50.560;7.268;2023-01-26T07:53:25;20.20;69.80
36556;DHT22;40859;50.560;7.268;2023-01-26T07:55:53;20.20;69.90
36556;DHT22;40859;50.560;7.268;2023-01-26T07:58:19;20.20;70.00
36556;DHT22;40859;50.560;7.268;2023-01-26T08:00:45;20.20;69.90
36556;DHT22;40859;50.560;7.268;2023-01-26T08:03:12;20.20;69.90
36556;DHT22;40859;50.560;7.268;2023-01-26T08:05:37;20.20;69.80
36556;DHT22;40859;50.560;7.268;2023-01-26T08:08:03;20.20;69.70
36556;DHT22;40859;50.560;7.268;2023-01-26T08:10:29;20.20;69.70
36556;DHT22;40859;50.560;7.268;2023-01-26T08:12:58;20.20;69.70
36556;DHT22;40859;50.560;7.268;2023-01-26T08:15:24;20.20;69.70
36556;DHT22;40859;50.560;7.268;2023-01-26T08:17:50;20.20;69.70
36556;DHT22;40859;50.560;7.268;2023-01-26T08:20:17;20.20;69.80
36556;DHT22;40859;50.560;7.268;2023-01-26T08:22:43;20.20;69.80
36556;DHT22;40859;50.560;7.268;2023-01-26T08:25:08;20.20;69.90
36556;DHT22;40859;50.560;7.268;2023-01-26T08:27:34;20.20;69.90
36556;DHT22;40859;50.560;7.268;2023-01-26T08:30:00;20.20;69.90
36556;DHT22;40859;50.560;7.268;2023-01-26T08:32:27;20.20;69.90
36556;DHT22;40859;50.560;7.268;2023-01-26T08:34:53;20.20;70.00
36556;DHT22;40859;50.560;7.268;2023-01-26T08:37:19;20.20;70.00
36556;DHT22;40859;50.560;7.268;2023-01-26T08:39:44;20.20;70.00
36556;DHT22;40859;50.560;7.268;2023-01-26T08:42:10;20.20;70.00
36556;DHT22;40859;50.560;7.268;2023-01-26T08:44:35;20.20;70.00
36556;DHT22;40859;50.560;7.268;2023-01-26T08:47:01;20.20;70.10
36556;DHT22;40859;50.560;7.268;2023-01-26T08:49:27;20.20;70.10
36556;DHT22;40859;50.560;7.268;2023-01-26T08:51:52;20.20;70.10
36556;DHT22;40859;50.560;7.268;2023-01-26T08:54:18;20.20;70.10
36556;DHT22;40859;50.560;7.268;2023-01-26T08:56:44;20.20;70.10
36556;DHT22;40859;50.560;7.268;2023-01-26T08:59:09;20.20;70.20
36556;DHT22;40859;50.560;7.268;2023-01-26T09:01:35;20.20;70.20
36556;DHT22;40859;50.560;7.268;2023-01-26T09:04:01;20.20;70.30
36556;DHT22;40859;50.560;7.268;2023-01-26T09:06:27;20.20;70.40
36556;DHT22;40859;50.560;7.268;2023-01-26T09:08:54;20.20;70.50
36556;DHT22;40859;50.560;7.268;2023-01-26T09:11:20;20.20;70.50
36556;DHT22;40859;50.560;7.268;2023-01-26T09:13:48;20.20;70.60
36556;DHT22;40859;50.560;7.268;2023-01-26T09:16:20;20.20;70.70
36556;DHT22;40859;50.560;7.268;2023-01-26T09:18:50;20.20;70.70
36556;DHT22;40859;50.560;7.268;2023-01-26T09:21:16;20.20;70.70
36556;DHT22;40859;50.560;7.268;2023-01-26T09:23:42;20.20;70.60
36556;DHT22;40859;50.560;7.268;2023-01-26T09:26:07;20.20;70.60
36556;DHT22;40859;50.560;7.268;2023-01-26T09:28:33;20.20;70.70
36556;DHT22;40859;50.560;7.268;2023-01-26T09:31:17;20.20;70.60
36556;DHT22;40859;50.560;7.268;2023-01-26T09:33:43;20.20;70.60
36556;DHT22;40859;50.560;7.268;2023-01-26T09:36:09;20.20;70.70
36556;DHT22;40859;50.560;7.268;2023-01-26T09:38:35;20.30;70.70
36556;DHT22;40859;50.560;7.268;2023-01-26T09:41:06;20.20;70.70
36556;DHT22;40859;50.560;7.268;2023-01-26T09:46:53;20.30;70.80
36556;DHT22;40859;50.560;7.268;2023-01-26T09:53:19;20.20;70.70
36556;DHT22;40859;50.560;7.268;2023-01-26T09:55:47;20.30;71.10
36556;DHT22;40859;50.560;7.268;2023-01-26T09:58:34;20.30;71.00
36556;DHT22;40859;50.560;7.268;2023-01-26T10:01:02;20.20;70.80
36556;DHT22;40859;50.560;7.268;2023-01-26T10:03:45;20.20;70.90
36556;DHT22;40859;50.560;7.268;2023-01-26T10:09:14;20.20;70.90
36556;DHT22;40859;50.560;7.268;2023-01-26T10:11:45;20.20;71.10
36556;DHT22;40859;50.560;7.268;2023-01-26T10:14:18;20.20;71.30
36556;DHT22;40859;50.560;7.268;2023-01-26T10:16:46;20.10;71.30
36556;DHT22;40859;50.560;7.268;2023-01-26T10:19:15;20.10;71.50
36556;DHT22;40859;50.560;7.268;2023-01-26T10:21:43;20.10;71.80
36556;DHT22;40859;50.560;7.268;2023-01-26T10:24:10;20.10;72.00
36556;DHT22;40859;50.560;7.268;2023-01-26T10:26:36;20.10;72.30
36556;DHT22;40859;50.560;7.268;2023-01-26T10:29:02;20.10;72.50
36556;DHT22;40859;50.560;7.268;2023-01-26T10:31:29;20.10;72.60
36556;DHT22;40859;50.560;7.268;2023-01-26T10:33:57;20.10;72.60
36556;DHT22;40859;50.560;7.268;2023-01-26T10:36:24;20.10;72.70
36556;DHT22;40859;50.560;7.268;2023-01-26T10:38:50;20.10;72.80
36556;DHT22;40859;50.560;7.268;2023-01-26T10:41:22;20.10;72.70
36556;DHT22;40859;50.560;7.268;2023-01-26T10:44:34;20.10;72.80
36556;DHT22;40859;50.560;7.268;2023-01-26T10:47:13;20.10;72.90
36556;DHT22;40859;50.560;7.268;2023-01-26T10:49:39;20.20;72.90
36556;DHT22;40859;50.560;7.268;2023-01-26T10:55:11;19.80;71.10
36556;DHT22;40859;50.560;7.268;2023-01-26T10:57:38;19.90;72.80
36556;DHT22;40859;50.560;7.268;2023-01-26T11:00:06;20.00;72.90
36556;DHT22;40859;50.560;7.268;2023-01-26T11:02:35;20.00;73.00
36556;DHT22;40859;50.560;7.268;2023-01-26T11:05:22;20.00;72.80
36556;DHT22;40859;50.560;7.268;2023-01-26T11:07:49;20.00;72.90
36556;DHT22;40859;50.560;7.268;2023-01-26T11:10:20;20.00;72.80
36556;DHT22;40859;50.560;7.268;2023-01-26T11:12:46;20.10;72.80
36556;DHT22;40859;50.560;7.268;2023-01-26T11:17:59;20.10;72.90
36556;DHT22;40859;50.560;7.268;2023-01-26T11:24:30;19.70;66.70
36556;DHT22;40859;50.560;7.268;2023-01-26T11:27:21;19.60;70.40
36556;DHT22;40859;50.560;7.268;2023-01-26T11:29:54;19.80;72.00
36556;DHT22;40859;50.560;7.268;2023-01-26T11:42:55;19.80;72.40
36556;DHT22;40859;50.560;7.268;2023-01-26T11:45:32;19.80;72.10
36556;DHT22;40859;50.560;7.268;2023-01-26T11:48:25;19.80;72.40
36556;DHT22;40859;50.560;7.268;2023-01-26T11:51:14;19.80;72.30
36556;DHT22;40859;50.560;7.268;2023-01-26T11:54:51;19.80;71.90
36556;DHT22;40859;50.560;7.268;2023-01-26T11:57:24;19.80;72.00
36556;DHT22;40859;50.560;7.268;2023-01-26T12:00:54;19.80;72.20
36556;DHT22;40859;50.560;7.268;2023-01-26T12:03:26;19.80;72.30
36556;DHT22;40859;50.560;7.268;2023-01-26T12:05:54;19.80;72.30
36556;DHT22;40859;50.560;7.268;2023-01-26T12:15:18;19.80;72.40
36556;DHT22;40859;50.560;7.268;2023-01-26T12:17:49;19.80;72.40
36556;DHT22;40859;50.560;7.268;2023-01-26T12:20:35;19.90;72.50
36556;DHT22;40859;50.560;7.268;2023-01-26T12:25:48;19.90;72.50
36556;DHT22;40859;50.560;7.268;2023-01-26T12:28:26;19.90;72.50
36556;DHT22;40859;50.560;7.268;2023-01-26T12:31:07;19.90;72.60
36556;DHT22;40859;50.560;7.268;2023-01-26T12:33:34;19.90;72.70
36556;DHT22;40859;50.560;7.268;2023-01-26T12:36:11;20.00;72.80
36556;DHT22;40859;50.560;7.268;2023-01-26T12:46:12;20.00;73.50
36556;DHT22;40859;50.560;7.268;2023-01-26T12:48:45;20.10;73.70
36556;DHT22;40859;50.560;7.268;2023-01-26T12:55:43;20.10;73.60
36556;DHT22;40859;50.560;7.268;2023-01-26T12:58:11;20.10;73.50
36556;DHT22;40859;50.560;7.268;2023-01-26T13:00:39;20.10;73.50
36556;DHT22;40859;50.560;7.268;2023-01-26T13:03:12;20.10;73.40
36556;DHT22;40859;50.560;7.268;2023-01-26T13:05:53;20.10;73.40
36556;DHT22;40859;50.560;7.268;2023-01-26T13:12:55;20.10;73.40
36556;DHT22;40859;50.560;7.268;2023-01-26T13:15:23;20.10;73.40
36556;DHT22;40859;50.560;7.268;2023-01-26T13:17:50;20.10;73.10
36556;DHT22;40859;50.560;7.268;2023-01-26T13:20:27;20.20;72.90
36556;DHT22;40859;50.560;7.268;2023-01-26T13:22:54;20.10;72.70
36556;DHT22;40859;50.560;7.268;2023-01-26T13:25:29;20.20;72.60
36556;DHT22;40859;50.560;7.268;2023-01-26T13:27:57;20.10;73.30
36556;DHT22;40859;50.560;7.268;2023-01-26T13:30:28;20.20;72.50
36556;DHT22;40859;50.560;7.268;2023-01-26T13:33:11;20.20;72.50
36556;DHT22;40859;50.560;7.268;2023-01-26T13:35:38;20.20;72.50
36556;DHT22;40859;50.560;7.268;2023-01-26T13:38:13;20.20;72.50
36556;DHT22;40859;50.560;7.268;2023-01-26T13:40:40;20.20;72.40
36556;DHT22;40859;50.560;7.268;2023-01-26T22:42:17;20.50;71.90
36556;DHT22;40859;50.560;7.268;2023-01-26T22:44:44;20.50;71.30
36556;DHT22;40859;50.560;7.268;2023-01-26T22:47:09;20.60;72.00
36556;DHT22;40859;50.560;7.268;2023-01-26T22:49:35;20.50;71.80
36556;DHT22;40859;50.560;7.268;2023-01-26T22:52:01;20.60;71.90
36556;DHT22;40859;50.560;7.268;2023-01-26T22:54:30;20.60;71.90
36556;DHT22;40859;50.560;7.268;2023-01-26T22:56:56;20.60;71.80
36556;DHT22;40859;50.560;7.268;2023-01-26T22:59:22;20.60;71.80
36556;DHT22;40859;50.560;7.268;2023-01-26T23:01:47;20.60;71.80
36556;DHT22;40859;50.560;7.268;2023-01-26T23:04:14;20.60;71.80
36556;DHT22;40859;50.560;7.268;2023-01-26T23:06:40;20.60;71.80
36556;DHT22;40859;50.560;7.268;2023-01-26T23:09:06;20.60;71.80
36556;DHT22;40859;50.560;7.268;2023-01-26T23:11:32;20.60;71.70
36556;DHT22;40859;50.560;7.268;2023-01-26T23:13:57;20.60;71.70
36556;DHT22;40859;50.560;7.268;2023-01-26T23:16:25;20.60;71.60
36556;DHT22;40859;50.560;7.268;2023-01-26T23:18:52;20.60;71.60
36556;DHT22;40859;50.560;7.268;2023-01-26T23:21:18;20.60;71.60
36556;DHT22;40859;50.560;7.268;2023-01-26T23:23:44;20.60;71.60
36556;DHT22;40859;50.560;7.268;2023-01-26T23:26:09;20.60;71.70
36556;DHT22;40859;50.560;7.268;2023-01-26T23:28:37;20.60;71.70
36556;DHT22;40859;50.560;7.268;2023-01-26T23:31:03;20.60;71.60
36556;DHT22;40859;50.560;7.268;2023-01-26T23:33:30;20.60;71.60
36556;DHT22;40859;50.560;7.268;2023-01-26T23:35:56;20.60;71.60
36556;DHT22;40859;50.560;7.268;2023-01-26T23:38:23;20.60;71.60
36556;DHT22;40859;50.560;7.268;2023-01-26T23:40:49;20.60;71.50
36556;DHT22;40859;50.560;7.268;2023-01-26T23:43:15;20.60;71.60
36556;DHT22;40859;50.560;7.268;2023-01-26T23:45:41;20.60;71.60
36556;DHT22;40859;50.560;7.268;2023-01-26T23:48:07;20.60;71.50
36556;DHT22;40859;50.560;7.268;2023-01-26T23:50:33;20.60;71.50
36556;DHT22;40859;50.560;7.268;2023-01-26T23:52:59;20.60;71.50
36556;DHT22;40859;50.560;7.268;2023-01-26T23:55:24;20.60;71.50
36556;DHT22;40859;50.560;7.268;2023-01-26T23:57:50;20.60;71.50
